Time;durP1;ratioP1;P1;durP2;ratioP2;P2;SDS_P1;SDS_P2;PMS_P1;PMS_P2;Temp;Humidity;BMP_temperature;BMP_pressure;BME280_temperature;BME280_humidity;BME280_pressure;Samples;Min_cycle;Max_cycle;Signal;HPM_P1;HPM_P2
2023/12/08 00:02:02;;;;;;;7.65;2.28;;;17.30;59.60;;;;;;6080360;23;20186;-83
2023/12/08 00:04:28;;;;;;;4.63;2.20;;;17.30;59.50;;;;;;6128577;23;20570;-84
2023/12/08 00:06:53;;;;;;;5.93;2.78;;;17.30;59.60;;;;;;6129134;23;20135;-84
2023/12/08 00:09:19;;;;;;;3.85;2.40;;;17.30;59.60;;;;;;6128519;23;20459;-83
2023/12/08 00:11:45;;;;;;;6.15;2.22;;;17.30;59.60;;;;;;6104436;23;20131;-82
2023/12/08 00:14:11;;;;;;;4.65;2.28;;;17.30;59.60;;;;;;6078548;23;20179;-83
2023/12/08 00:16:37;;;;;;;6.07;2.65;;;17.40;59.20;;;;;;6103689;23;20128;-83
2023/12/08 00:19:02;;;;;;;3.53;2.08;;;17.40;59.50;;;;;;6079554;23;20218;-83
2023/12/08 00:21:28;;;;;;;3.67;2.10;;;17.30;59.40;;;;;;6126624;23;20626;-83
2023/12/08 00:23:54;;;;;;;7.70;2.33;;;17.20;59.60;;;;;;6103814;23;20132;-82
2023/12/08 00:26:20;;;;;;;3.95;2.38;;;17.30;59.60;;;;;;6104788;23;20140;-83
2023/12/08 00:28:45;;;;;;;4.18;2.20;;;17.30;59.70;;;;;;6105285;23;20136;-84
2023/12/08 00:31:12;;;;;;;5.65;2.50;;;17.30;59.70;;;;;;6104726;23;20140;-83
2023/12/08 00:33:37;;;;;;;3.28;2.28;;;17.30;59.70;;;;;;6105429;23;20135;-83
2023/12/08 00:36:16;;;;;;;4.30;2.33;;;17.30;59.40;;;;;;6080616;23;20668;-84
2023/12/08 00:38:42;;;;;;;5.60;2.17;;;17.30;59.40;;;;;;6100856;23;20249;-83
2023/12/08 00:41:09;;;;;;;7.38;2.40;;;17.30;59.60;;;;;;6128882;23;20594;-84
2023/12/08 00:43:35;;;;;;;4.57;2.10;;;17.20;59.60;;;;;;6120845;23;20228;-83
2023/12/08 00:46:01;;;;;;;4.70;2.40;;;17.30;59.40;;;;;;6153538;23;20237;-86
2023/12/08 00:48:27;;;;;;;3.05;2.10;;;17.30;59.40;;;;;;6128115;23;20567;-84
2023/12/08 00:50:54;;;;;;;5.45;2.38;;;17.30;59.50;;;;;;6158228;23;20174;-83
2023/12/08 00:55:45;;;;;;;6.18;2.47;;;17.20;59.60;;;;;;6157840;23;20530;-84
2023/12/08 00:58:14;;;;;;;5.60;2.40;;;17.20;59.60;;;;;;6104921;23;20186;-84
2023/12/08 01:00:40;;;;;;;5.55;2.10;;;17.20;59.60;;;;;;6105379;23;20579;-83
2023/12/08 01:03:06;;;;;;;4.63;2.55;;;17.20;59.70;;;;;;6080604;23;20151;-83
2023/12/08 01:05:31;;;;;;;5.20;2.42;;;17.10;59.60;;;;;;6104998;23;20136;-83
2023/12/08 01:07:57;;;;;;;6.40;2.42;;;17.20;59.60;;;;;;6129000;23;20661;-83
2023/12/08 01:10:23;;;;;;;4.97;2.60;;;17.20;59.60;;;;;;6105057;23;20574;-83
2023/12/08 01:12:49;;;;;;;4.20;2.40;;;17.20;59.70;;;;;;6081034;23;20813;-85
2023/12/08 01:15:15;;;;;;;4.60;2.17;;;17.20;59.70;;;;;;6105803;23;20591;-83
2023/12/08 01:17:42;;;;;;;4.55;2.40;;;17.10;59.60;;;;;;6106292;23;20457;-82
2023/12/08 01:20:09;;;;;;;3.88;2.67;;;17.20;59.80;;;;;;6081485;23;20485;-85
2023/12/08 01:22:35;;;;;;;4.78;2.28;;;17.10;59.80;;;;;;6106387;23;20241;-84
2023/12/08 01:25:01;;;;;;;2.85;2.10;;;17.20;59.70;;;;;;6130668;23;20132;-82
2023/12/08 01:27:27;;;;;;;4.82;2.25;;;17.10;59.80;;;;;;6156847;23;20136;-83
2023/12/08 01:29:53;;;;;;;3.42;2.22;;;17.20;59.70;;;;;;6130371;23;20154;-84
2023/12/08 01:32:19;;;;;;;4.85;2.53;;;17.10;59.60;;;;;;6105999;23;20218;-83
2023/12/08 01:34:44;;;;;;;3.55;2.40;;;17.20;59.70;;;;;;6106046;23;20688;-83
2023/12/08 01:37:10;;;;;;;4.13;2.30;;;17.20;59.60;;;;;;6105912;23;20603;-83
2023/12/08 01:39:36;;;;;;;4.03;2.22;;;17.20;59.60;;;;;;6106145;23;20555;-83
2023/12/08 01:42:03;;;;;;;6.45;2.35;;;17.20;59.60;;;;;;6105948;23;20563;-84
2023/12/08 01:44:30;;;;;;;3.78;1.98;;;17.20;59.60;;;;;;6082104;23;20634;-85
2023/12/08 01:46:59;;;;;;;3.80;2.17;;;17.10;59.70;;;;;;6082713;23;20139;-83
2023/12/08 01:49:25;;;;;;;5.13;2.20;;;17.10;59.60;;;;;;6056505;23;20156;-84
2023/12/08 01:51:51;;;;;;;3.50;2.20;;;17.10;59.60;;;;;;6156204;23;20585;-84
2023/12/08 01:54:16;;;;;;;4.95;2.45;;;17.10;59.60;;;;;;6106067;23;20649;-83
2023/12/08 01:56:42;;;;;;;5.03;2.28;;;17.10;59.70;;;;;;6131308;23;20147;-84
2023/12/08 02:01:33;;;;;;;4.47;2.53;;;17.10;59.70;;;;;;6174114;23;20215;-84
2023/12/08 02:03:59;;;;;;;3.58;2.47;;;17.10;59.70;;;;;;6106134;23;20525;-84
2023/12/08 02:06:25;;;;;;;4.07;2.60;;;17.10;59.80;;;;;;6082095;23;20147;-83
2023/12/08 02:08:52;;;;;;;4.93;2.72;;;17.20;59.60;;;;;;6130006;23;20132;-84
2023/12/08 02:11:18;;;;;;;3.83;2.53;;;17.10;59.60;;;;;;6129680;23;20139;-84
2023/12/08 02:13:44;;;;;;;4.70;2.38;;;17.10;59.80;;;;;;6129810;23;20203;-83
2023/12/08 02:16:18;;;;;;;3.80;2.42;;;17.10;59.70;;;;;;6105889;23;20202;-84
2023/12/08 02:18:45;;;;;;;4.47;2.25;;;17.10;59.60;;;;;;6129995;23;20214;-84
2023/12/08 02:21:13;;;;;;;6.65;2.25;;;17.10;59.70;;;;;;6136865;23;20210;-83
2023/12/08 02:23:47;;;;;;;3.38;2.33;;;17.10;59.70;;;;;;6159051;23;20128;-83
2023/12/08 02:26:12;;;;;;;5.25;2.53;;;17.10;59.50;;;;;;6134787;23;20151;-84
2023/12/08 02:31:10;;;;;;;4.60;2.30;;;17.10;59.60;;;;;;6156166;23;20175;-83
2023/12/08 02:33:36;;;;;;;3.95;2.30;;;17.10;59.60;;;;;;6082370;23;20649;-83
2023/12/08 02:38:37;;;;;;;3.55;2.17;;;17.10;59.70;;;;;;6156922;23;20210;-84
2023/12/08 02:41:04;;;;;;;4.80;2.20;;;17.00;59.50;;;;;;6105784;23;20146;-83
2023/12/08 02:46:27;;;;;;;3.50;2.33;;;17.00;59.70;;;;;;6125872;23;20188;-83
2023/12/08 02:49:00;;;;;;;3.60;2.58;;;17.00;59.60;;;;;;6003016;23;20238;-84
2023/12/08 02:51:26;;;;;;;5.43;2.40;;;17.00;59.50;;;;;;6050312;23;20474;-84
2023/12/08 02:53:52;;;;;;;3.80;2.38;;;17.00;59.60;;;;;;6075882;23;20144;-84
2023/12/08 02:56:18;;;;;;;3.90;2.58;;;17.10;59.50;;;;;;6077005;23;20211;-84
2023/12/08 02:58:45;;;;;;;3.72;2.67;;;17.10;59.70;;;;;;6076139;23;20341;-84
2023/12/08 03:01:11;;;;;;;3.05;2.20;;;17.00;59.50;;;;;;6100481;23;20575;-83
2023/12/08 03:03:37;;;;;;;3.42;2.03;;;17.10;59.60;;;;;;6100651;23;20140;-85
2023/12/08 03:06:03;;;;;;;5.80;2.55;;;17.10;59.40;;;;;;6100391;23;20140;-83
2023/12/08 03:08:28;;;;;;;5.68;2.45;;;17.10;59.50;;;;;;6100144;23;20216;-83
2023/12/08 03:10:54;;;;;;;3.50;2.35;;;17.00;59.60;;;;;;6100186;23;20187;-84
2023/12/08 03:13:20;;;;;;;5.70;2.33;;;17.10;59.70;;;;;;6100453;23;20133;-83
2023/12/08 03:15:46;;;;;;;3.33;2.20;;;17.00;59.60;;;;;;6100444;23;20164;-84
2023/12/08 03:18:12;;;;;;;6.25;2.67;;;17.00;59.70;;;;;;6126341;23;20239;-84
2023/12/08 03:20:37;;;;;;;4.80;2.17;;;17.00;59.60;;;;;;6100843;23;20448;-84
2023/12/08 03:23:03;;;;;;;2.92;1.85;;;17.10;59.60;;;;;;6075936;23;20552;-84
2023/12/08 03:25:29;;;;;;;3.90;2.50;;;17.00;59.60;;;;;;6099501;23;20619;-84
2023/12/08 03:27:55;;;;;;;4.13;2.30;;;17.00;59.50;;;;;;6076102;23;20452;-84
2023/12/08 03:30:20;;;;;;;3.28;2.25;;;17.00;59.60;;;;;;6076237;23;20170;-84
2023/12/08 03:32:46;;;;;;;5.40;2.67;;;17.00;59.60;;;;;;6100047;23;20184;-84
2023/12/08 03:35:12;;;;;;;4.82;2.55;;;17.00;59.40;;;;;;6075658;23;20641;-84
2023/12/08 03:37:38;;;;;;;3.50;2.60;;;17.00;59.60;;;;;;6134272;23;20202;-83
2023/12/08 03:40:06;;;;;;;4.30;2.30;;;17.00;59.50;;;;;;6158395;23;20138;-83
2023/12/08 03:42:36;;;;;;;4.60;2.60;;;17.00;59.40;;;;;;6084160;23;20155;-83
2023/12/08 03:45:03;;;;;;;3.83;2.42;;;17.10;59.40;;;;;;6108998;23;20150;-83
2023/12/08 03:52:40;;;;;;;5.18;2.38;;;17.00;59.50;;;;;;6155781;23;20206;-83
2023/12/08 03:55:06;;;;;;;3.38;2.10;;;17.00;59.50;;;;;;6129244;23;20163;-83
2023/12/08 03:57:32;;;;;;;4.75;2.40;;;17.00;59.40;;;;;;6105472;23;20497;-83
2023/12/08 03:59:57;;;;;;;8.57;2.47;;;17.00;59.60;;;;;;6129209;23;20131;-84
2023/12/08 04:02:23;;;;;;;5.15;2.60;;;17.00;59.40;;;;;;6128435;23;20671;-83
2023/12/08 04:04:49;;;;;;;3.97;2.38;;;17.00;59.40;;;;;;6128864;23;20590;-83
2023/12/08 04:07:15;;;;;;;4.95;2.53;;;17.00;59.50;;;;;;6154086;23;20186;-84
2023/12/08 04:09:40;;;;;;;4.88;2.45;;;17.00;59.30;;;;;;6153919;23;20534;-83
2023/12/08 04:14:32;;;;;;;5.15;2.30;;;16.90;59.50;;;;;;6155592;23;20534;-84
2023/12/08 04:16:58;;;;;;;3.33;2.30;;;17.00;59.50;;;;;;6129302;23;20132;-83
2023/12/08 04:19:25;;;;;;;4.50;2.30;;;16.90;59.40;;;;;;6153872;23;20142;-83
2023/12/08 04:21:51;;;;;;;3.67;2.22;;;17.00;59.40;;;;;;6080416;23;20148;-84
2023/12/08 04:26:54;;;;;;;2.95;2.05;;;17.00;59.50;;;;;;6154908;23;20210;-84
2023/12/08 04:29:20;;;;;;;4.15;2.50;;;16.90;59.40;;;;;;6153782;23;20270;-83
2023/12/08 04:31:46;;;;;;;4.00;2.45;;;17.00;59.40;;;;;;6154035;23;20175;-83
2023/12/08 04:34:12;;;;;;;3.58;2.40;;;17.00;59.40;;;;;;6153771;23;20146;-83
2023/12/08 04:36:38;;;;;;;4.28;2.40;;;16.90;59.40;;;;;;6129696;23;20136;-83
2023/12/08 04:39:04;;;;;;;3.50;2.13;;;16.90;59.50;;;;;;6129732;23;20466;-84
2023/12/08 04:41:30;;;;;;;3.90;2.45;;;16.90;59.40;;;;;;6107752;23;20222;-85
2023/12/08 04:43:57;;;;;;;5.15;2.40;;;16.90;59.40;;;;;;6081131;23;20155;-85
2023/12/08 04:46:23;;;;;;;3.50;2.40;;;17.00;59.50;;;;;;6130644;23;20140;-85
2023/12/08 04:48:49;;;;;;;4.20;2.35;;;16.90;59.40;;;;;;6131620;23;20127;-85
2023/12/08 04:51:15;;;;;;;5.00;2.40;;;17.00;59.40;;;;;;6131612;23;20182;-85
2023/12/08 04:53:41;;;;;;;5.30;2.58;;;16.90;59.40;;;;;;6083173;23;20195;-85
2023/12/08 04:56:09;;;;;;;4.55;2.55;;;16.90;59.50;;;;;;6130853;23;20195;-85
2023/12/08 04:58:35;;;;;;;3.72;2.38;;;16.90;59.50;;;;;;6106034;23;20156;-85
2023/12/08 05:01:00;;;;;;;3.03;2.30;;;17.00;59.50;;;;;;6106767;23;20230;-85
2023/12/08 05:03:27;;;;;;;4.35;2.30;;;17.00;59.60;;;;;;6106348;23;20724;-84
2023/12/08 05:05:53;;;;;;;4.40;2.78;;;16.90;59.60;;;;;;6155854;23;20140;-85
2023/12/08 05:08:19;;;;;;;3.10;2.30;;;16.90;59.70;;;;;;6129975;23;20142;-85
2023/12/08 05:10:45;;;;;;;5.20;2.47;;;16.90;59.50;;;;;;6130334;23;20132;-85
2023/12/08 05:13:11;;;;;;;4.03;2.40;;;17.00;59.60;;;;;;6155626;23;20203;-85
2023/12/08 05:15:37;;;;;;;2.92;2.25;;;16.90;59.50;;;;;;6129567;23;20270;-85
2023/12/08 05:18:03;;;;;;;3.72;2.20;;;16.90;59.60;;;;;;6130689;23;20621;-85
2023/12/08 05:20:29;;;;;;;4.18;2.38;;;16.90;59.50;;;;;;6104999;23;20152;-85
2023/12/08 05:22:55;;;;;;;3.00;2.20;;;16.90;59.50;;;;;;6082681;23;20143;-85
2023/12/08 05:25:22;;;;;;;4.47;2.22;;;16.80;59.50;;;;;;6131057;23;20162;-85
2023/12/08 05:27:48;;;;;;;7.03;2.10;;;16.90;59.40;;;;;;6082458;23;20191;-85
2023/12/08 05:30:14;;;;;;;3.38;2.45;;;16.90;59.50;;;;;;6106637;23;20132;-85
2023/12/08 05:37:40;;;;;;;3.92;2.40;;;16.90;59.40;;;;;;6172936;23;20259;-83
2023/12/08 05:40:06;;;;;;;5.72;2.35;;;16.90;59.40;;;;;;6185672;23;20503;-82
2023/12/08 05:42:32;;;;;;;5.10;2.20;;;16.80;59.40;;;;;;6160055;23;20135;-82
2023/12/08 05:44:59;;;;;;;3.33;2.05;;;16.90;59.50;;;;;;6135550;23;20160;-83
2023/12/08 05:47:24;;;;;;;3.63;2.30;;;16.90;59.50;;;;;;6134591;23;20139;-86
2023/12/08 05:49:50;;;;;;;3.95;2.55;;;16.90;59.40;;;;;;6134012;23;20570;-83
2023/12/08 05:52:20;;;;;;;4.28;2.40;;;16.90;59.40;;;;;;6134234;23;20155;-83
2023/12/08 05:54:46;;;;;;;3.65;2.20;;;16.90;59.40;;;;;;6109620;23;20205;-84
2023/12/08 05:57:12;;;;;;;3.42;2.25;;;16.90;59.40;;;;;;6158043;23;20151;-84
2023/12/08 05:59:37;;;;;;;3.85;2.20;;;16.90;59.40;;;;;;6134198;23;20158;-84
2023/12/08 06:02:03;;;;;;;4.75;2.78;;;16.90;59.30;;;;;;6109247;23;20170;-84
2023/12/08 06:04:29;;;;;;;4.28;2.45;;;17.00;59.40;;;;;;6133283;23;20142;-84
2023/12/08 06:06:55;;;;;;;3.30;2.30;;;16.90;59.40;;;;;;6160562;23;20570;-84
2023/12/08 06:09:24;;;;;;;4.50;2.50;;;16.90;59.40;;;;;;6111159;23;20597;-84
2023/12/08 06:11:53;;;;;;;3.70;2.60;;;16.90;59.10;;;;;;6085761;23;20151;-84
2023/12/08 06:14:20;;;;;;;3.58;2.10;;;16.90;59.30;;;;;;6110061;23;20150;-84
2023/12/08 06:16:46;;;;;;;2.80;2.17;;;16.90;59.20;;;;;;6135702;23;20135;-83
2023/12/08 06:19:12;;;;;;;2.83;2.17;;;16.90;59.30;;;;;;6111280;23;20164;-83
2023/12/08 06:21:38;;;;;;;3.63;2.30;;;16.80;59.30;;;;;;6136377;23;20525;-84
2023/12/08 06:24:04;;;;;;;3.00;2.40;;;16.90;59.10;;;;;;6136415;23;20136;-84
2023/12/08 06:26:31;;;;;;;4.03;2.42;;;16.90;59.30;;;;;;6160435;23;20131;-84
2023/12/08 06:28:57;;;;;;;3.75;2.33;;;16.90;59.20;;;;;;6111272;23;20193;-84
2023/12/08 06:31:22;;;;;;;4.00;2.40;;;16.90;59.10;;;;;;6109127;23;20229;-84
2023/12/08 06:33:50;;;;;;;4.55;2.45;;;16.90;59.30;;;;;;6133356;23;20463;-83
2023/12/08 06:36:16;;;;;;;3.58;2.38;;;16.90;59.30;;;;;;6107391;23;20206;-85
2023/12/08 06:38:42;;;;;;;3.22;2.53;;;17.00;59.30;;;;;;6110712;23;20151;-83
2023/12/08 06:41:08;;;;;;;4.30;2.40;;;16.80;59.20;;;;;;6108939;23;20154;-83
2023/12/08 06:43:34;;;;;;;4.55;2.47;;;16.90;59.30;;;;;;6134497;23;20141;-83
2023/12/08 06:46:03;;;;;;;2.95;2.17;;;16.90;59.10;;;;;;6108988;23;20158;-83
2023/12/08 06:48:31;;;;;;;3.20;2.17;;;16.90;59.30;;;;;;6060437;23;20289;-83
2023/12/08 06:50:57;;;;;;;5.55;2.58;;;16.90;59.30;;;;;;6135442;23;20475;-83
2023/12/08 06:53:24;;;;;;;4.03;2.33;;;16.80;59.40;;;;;;6133614;23;20153;-83
2023/12/08 06:55:51;;;;;;;6.68;2.85;;;16.90;59.80;;;;;;6060552;23;20269;-83
2023/12/08 06:58:17;;;;;;;7.43;2.63;;;16.90;59.90;;;;;;6108182;23;20205;-83
2023/12/08 07:00:44;;;;;;;13.30;3.10;;;16.90;59.80;;;;;;6185247;23;20157;-83
2023/12/08 07:03:10;;;;;;;7.00;2.83;;;16.90;59.60;;;;;;6134135;23;20157;-83
2023/12/08 07:05:37;;;;;;;9.65;3.05;;;16.80;59.70;;;;;;6135384;23;20789;-83
2023/12/08 07:08:02;;;;;;;7.57;2.75;;;16.90;59.90;;;;;;6140798;23;20224;-83
2023/12/08 07:10:28;;;;;;;6.15;2.72;;;16.80;59.60;;;;;;6129366;23;20574;-83
2023/12/08 07:12:54;;;;;;;6.25;2.72;;;16.80;59.50;;;;;;6130102;23;20447;-83
2023/12/08 07:15:20;;;;;;;6.95;2.50;;;16.90;59.40;;;;;;6129763;23;20264;-83
2023/12/08 07:17:46;;;;;;;5.32;2.60;;;16.80;59.10;;;;;;6102741;23;20213;-82
2023/12/08 07:20:12;;;;;;;7.90;3.03;;;16.90;59.10;;;;;;6106244;23;20206;-82
2023/12/08 07:22:38;;;;;;;7.47;2.83;;;17.00;58.90;;;;;;6105319;23;20498;-82
2023/12/08 07:25:09;;;;;;;6.13;2.92;;;17.00;58.90;;;;;;6082426;23;20233;-82
2023/12/08 07:27:35;;;;;;;4.72;2.67;;;17.00;58.70;;;;;;6129978;23;20123;-81
2023/12/08 07:30:03;;;;;;;5.72;2.70;;;17.10;58.80;;;;;;6129552;23;20154;-81
2023/12/08 07:32:31;;;;;;;6.60;2.88;;;17.10;58.80;;;;;;6081925;23;20475;-83
2023/12/08 07:34:58;;;;;;;8.77;2.88;;;17.10;58.90;;;;;;6180988;23;20194;-82
2023/12/08 07:37:24;;;;;;;7.35;2.72;;;17.10;58.80;;;;;;6134551;23;20149;-83
2023/12/08 07:39:54;;;;;;;7.45;2.63;;;17.10;58.90;;;;;;6159287;23;20135;-82
2023/12/08 07:42:23;;;;;;;4.20;2.40;;;17.10;58.80;;;;;;6107957;23;20151;-82
2023/12/08 07:44:52;;;;;;;3.30;2.38;;;17.10;58.70;;;;;;6084890;23;20158;-84
2023/12/08 07:47:18;;;;;;;5.53;2.40;;;17.10;59.20;;;;;;6135122;23;20197;-84
2023/12/08 07:49:44;;;;;;;6.55;2.70;;;17.00;59.00;;;;;;6107317;23;20658;-84
2023/12/08 07:52:13;;;;;;;5.30;2.67;;;17.20;58.60;;;;;;6079436;23;20143;-84
2023/12/08 07:54:40;;;;;;;6.68;2.55;;;17.10;58.90;;;;;;6105167;23;20619;-84
2023/12/08 07:57:07;;;;;;;4.47;2.35;;;17.10;58.80;;;;;;6100755;23;20224;-83
2023/12/08 07:59:33;;;;;;;5.45;2.50;;;17.10;58.90;;;;;;6109692;23;20166;-86
2023/12/08 08:01:59;;;;;;;4.78;2.50;;;17.10;58.50;;;;;;6110060;23;20139;-84
2023/12/08 08:04:25;;;;;;;4.50;2.47;;;17.10;58.80;;;;;;6134304;23;20170;-84
2023/12/08 08:06:51;;;;;;;5.40;2.88;;;17.10;58.90;;;;;;6112437;23;20233;-83
2023/12/08 08:09:18;;;;;;;4.35;2.58;;;17.10;58.80;;;;;;6134356;23;20485;-84
2023/12/08 08:11:44;;;;;;;4.43;2.42;;;17.20;58.20;;;;;;6160075;23;20135;-84
2023/12/08 08:14:10;;;;;;;4.45;2.38;;;17.10;58.30;;;;;;6152873;23;20162;-84
2023/12/08 08:16:36;;;;;;;5.60;2.80;;;17.20;58.20;;;;;;6105302;23;20144;-84
2023/12/08 08:19:03;;;;;;;3.85;2.40;;;17.20;58.30;;;;;;6156389;23;20132;-83
2023/12/08 08:21:30;;;;;;;3.53;2.33;;;17.20;58.30;;;;;;6131419;23;20135;-83
2023/12/08 08:24:02;;;;;;;3.92;2.35;;;17.20;58.30;;;;;;6082705;23;20182;-84
2023/12/08 08:26:32;;;;;;;4.82;2.42;;;17.20;58.50;;;;;;6002068;23;20235;-82
2023/12/08 08:29:00;;;;;;;6.18;2.40;;;17.20;58.20;;;;;;6096798;23;20177;-81
2023/12/08 08:31:26;;;;;;;6.88;2.50;;;17.20;58.20;;;;;;6073535;23;20184;-82
2023/12/08 08:33:55;;;;;;;4.55;2.40;;;17.20;58.10;;;;;;6095336;23;20166;-83
2023/12/08 08:36:22;;;;;;;4.13;2.80;;;17.10;58.50;;;;;;6045795;23;20623;-82
2023/12/08 08:39:03;;;;;;;4.38;2.40;;;17.20;58.20;;;;;;6094493;23;20217;-81
2023/12/08 08:41:32;;;;;;;3.83;2.30;;;17.10;58.70;;;;;;6076253;23;20243;-84
2023/12/08 08:43:58;;;;;;;4.53;2.50;;;17.10;58.50;;;;;;6074824;23;20237;-81
2023/12/08 08:46:44;;;;;;;4.10;2.38;;;17.10;58.10;;;;;;6070132;23;20211;-82
2023/12/08 08:50:06;;;;;;;;;;;;;;;;;;;;;
2023/12/08 08:52:23;;;;;;;4.57;2.60;;;17.10;58.90;;;;;;6034888;23;20182;-84
2023/12/08 08:54:49;;;;;;;4.50;2.30;;;17.10;59.00;;;;;;6039775;23;20298;-83
2023/12/08 08:57:16;;;;;;;7.38;2.28;;;17.10;59.10;;;;;;6062636;23;20149;-84
2023/12/08 08:59:41;;;;;;;5.55;2.63;;;17.10;59.10;;;;;;6048742;23;20619;-84
2023/12/08 09:02:10;;;;;;;6.85;2.58;;;17.10;58.90;;;;;;6073180;23;20161;-83
2023/12/08 09:04:36;;;;;;;4.93;2.60;;;17.10;59.00;;;;;;6072277;23;20208;-83
2023/12/08 09:07:02;;;;;;;3.80;2.38;;;17.10;59.00;;;;;;6096883;23;20188;-82
2023/12/08 09:09:29;;;;;;;4.88;2.45;;;17.00;59.30;;;;;;6051587;23;20152;-83
2023/12/08 09:11:55;;;;;;;3.78;2.22;;;17.10;59.00;;;;;;6055635;23;20160;-83
2023/12/08 09:14:21;;;;;;;5.10;2.03;;;17.10;59.00;;;;;;6076630;23;20317;-83
2023/12/08 09:16:50;;;;;;;4.72;2.63;;;17.10;58.60;;;;;;6051029;23;20158;-83
2023/12/08 09:19:15;;;;;;;3.17;2.38;;;17.10;58.80;;;;;;6086330;23;20155;-83
2023/12/08 09:21:41;;;;;;;4.35;2.30;;;17.10;58.40;;;;;;6107376;23;20128;-82
2023/12/08 09:24:08;;;;;;;3.22;2.30;;;17.20;58.20;;;;;;6109129;23;20133;-82
2023/12/08 09:26:38;;;;;;;2.75;2.10;;;17.20;58.10;;;;;;6087164;23;20156;-84
2023/12/08 09:29:09;;;;;;;3.80;2.50;;;17.20;58.70;;;;;;6108596;23;20551;-85
2023/12/08 09:31:36;;;;;;;2.88;2.30;;;17.20;58.70;;;;;;6084107;23;20208;-82
2023/12/08 09:34:05;;;;;;;5.15;2.40;;;17.20;58.40;;;;;;6106161;23;20133;-83
2023/12/08 09:36:31;;;;;;;3.88;2.50;;;17.20;58.30;;;;;;6081274;23;20184;-83
2023/12/08 09:39:19;;;;;;;3.92;2.20;;;17.20;58.50;;;;;;6079801;23;20150;-85
2023/12/08 09:41:46;;;;;;;3.92;2.38;;;17.20;58.90;;;;;;6112106;23;20556;-83
2023/12/08 09:44:12;;;;;;;3.47;2.40;;;17.10;59.10;;;;;;6086368;23;20144;-84
2023/12/08 09:46:54;;;;;;;4.28;2.63;;;17.10;58.80;;;;;;6076696;23;20141;-83
2023/12/08 09:49:33;;;;;;;4.40;2.50;;;17.10;58.60;;;;;;6036878;23;20170;-82
2023/12/08 09:52:01;;;;;;;4.80;2.80;;;17.10;59.00;;;;;;6052544;23;20152;-85
2023/12/08 09:54:32;;;;;;;3.95;2.47;;;17.20;59.10;;;;;;6003350;23;20152;-83
2023/12/08 09:57:09;;;;;;;2.90;1.98;;;17.10;58.90;;;;;;5989593;23;20219;-83
2023/12/08 10:02:58;;;;;;;2.53;2.15;;;17.20;58.00;;;;;;6035430;23;20141;-83
2023/12/08 10:05:28;;;;;;;3.63;2.17;;;17.30;57.90;;;;;;6019395;23;20142;-84
2023/12/08 10:07:56;;;;;;;3.30;2.13;;;17.30;57.40;;;;;;5976048;23;20162;-83
2023/12/08 10:12:59;;;;;;;3.35;2.35;;;17.20;58.20;;;;;;6153954;23;20205;-83
2023/12/08 10:15:28;;;;;;;4.05;2.22;;;17.20;59.20;;;;;;6165225;23;20169;-82
2023/12/08 10:17:53;;;;;;;4.07;2.75;;;17.30;58.30;;;;;;6090103;23;20249;-83
2023/12/08 10:20:22;;;;;;;2.95;2.08;;;17.30;57.80;;;;;;6137375;23;20151;-83
2023/12/08 10:22:57;;;;;;;3.60;2.10;;;17.30;58.00;;;;;;6143604;23;20794;-81
2023/12/08 10:28:45;;;;;;;3.80;2.28;;;17.30;58.20;;;;;;6158804;23;20214;-83
2023/12/08 10:31:12;;;;;;;5.07;2.38;;;17.30;57.80;;;;;;6159080;23;20136;-81
2023/12/08 10:33:40;;;;;;;3.50;2.20;;;17.30;58.00;;;;;;6163322;23;20178;-81
2023/12/08 10:36:06;;;;;;;2.38;2.08;;;17.30;58.10;;;;;;6132825;23;20689;-81
2023/12/08 10:38:34;;;;;;;2.22;1.70;;;17.30;58.20;;;;;;6131266;23;20181;-83
2023/12/08 10:40:59;;;;;;;3.65;2.03;;;17.30;58.10;;;;;;6130370;23;20139;-84
2023/12/08 10:43:30;;;;;;;3.85;2.00;;;17.30;58.00;;;;;;6130995;23;20147;-82
2023/12/08 10:45:58;;;;;;;2.25;1.73;;;17.30;57.80;;;;;;6084268;23;20162;-83
2023/12/08 10:50:54;;;;;;;3.58;2.35;;;17.30;57.00;;;;;;6156398;23;20406;-82
2023/12/08 10:53:20;;;;;;;2.72;2.10;;;17.40;57.30;;;;;;6158424;23;20199;-81
2023/12/08 10:56:05;;;;;;;2.80;2.08;;;17.30;57.80;;;;;;6160462;23;20170;-83
2023/12/08 10:58:33;;;;;;;3.00;2.10;;;17.30;57.80;;;;;;6135457;23;20469;-86
2023/12/08 11:00:58;;;;;;;2.78;2.10;;;17.30;57.50;;;;;;6135578;23;20169;-84
2023/12/08 11:03:25;;;;;;;3.60;2.20;;;17.30;57.40;;;;;;6160126;23;20131;-84
2023/12/08 11:06:12;;;;;;;2.40;1.98;;;17.30;58.00;;;;;;6135282;23;20162;-85
2023/12/08 11:08:44;;;;;;;3.95;2.00;;;17.30;58.00;;;;;;6162255;23;20127;-84
2023/12/08 11:11:11;;;;;;;5.05;2.40;;;17.30;58.30;;;;;;6137170;23;20143;-86
2023/12/08 11:13:45;;;;;;;2.90;2.20;;;17.30;58.00;;;;;;6160498;23;20473;-84
2023/12/08 11:16:34;;;;;;;2.70;1.92;;;17.20;58.50;;;;;;6047384;23;20191;-82
2023/12/08 11:18:59;;;;;;;3.17;1.90;;;17.20;58.70;;;;;;6075020;23;20154;-82
2023/12/08 11:21:27;;;;;;;3.15;2.40;;;17.20;58.50;;;;;;6069249;23;20148;-84
2023/12/08 11:23:58;;;;;;;3.38;1.90;;;17.20;58.50;;;;;;6068515;23;20169;-84
2023/12/08 11:26:46;;;;;;;3.63;1.92;;;17.20;58.40;;;;;;5998857;23;20188;-84
2023/12/08 11:29:29;;;;;;;2.38;1.98;;;17.20;58.70;;;;;;6072435;23;20588;-86
2023/12/08 11:32:18;;;;;;;3.08;2.03;;;17.20;58.80;;;;;;6029743;23;20144;-83
2023/12/08 11:35:05;;;;;;;3.53;2.40;;;17.20;58.50;;;;;;6080313;23;20180;-84
2023/12/08 11:37:32;;;;;;;3.42;2.28;;;17.20;58.80;;;;;;6074193;23;20156;-84
2023/12/08 11:40:00;;;;;;;3.50;1.92;;;17.20;58.40;;;;;;6073323;23;20148;-84
2023/12/08 11:42:28;;;;;;;2.85;1.98;;;17.20;58.90;;;;;;6076937;23;20152;-82
2023/12/08 11:45:01;;;;;;;3.28;1.95;;;17.20;58.50;;;;;;6047586;23;20164;-84
2023/12/08 11:47:27;;;;;;;3.25;2.17;;;17.20;59.30;;;;;;6101107;23;20151;-82
2023/12/08 11:49:57;;;;;;;2.58;1.88;;;17.20;58.60;;;;;;6102600;23;20167;-82
2023/12/08 11:52:26;;;;;;;3.05;1.83;;;17.20;57.90;;;;;;6053124;23;20202;-83
2023/12/08 11:55:09;;;;;;;2.53;1.95;;;17.30;57.40;;;;;;6101693;23;20243;-83
2023/12/08 11:58:06;;;;;;;2.55;2.20;;;17.30;57.90;;;;;;6037602;23;20158;-83
2023/12/08 12:00:34;;;;;;;2.83;2.00;;;17.30;57.90;;;;;;5998054;23;20254;-84
2023/12/08 12:03:01;;;;;;;4.30;1.85;;;17.40;56.80;;;;;;5997297;23;20161;-84
2023/12/08 12:05:30;;;;;;;2.70;2.20;;;17.30;57.90;;;;;;6015884;23;20209;-84
2023/12/08 12:07:56;;;;;;;3.63;2.30;;;17.30;58.20;;;;;;5991790;23;20222;-83
2023/12/08 12:10:26;;;;;;;2.58;1.75;;;17.30;58.00;;;;;;5991477;23;20184;-83
2023/12/08 12:12:54;;;;;;;3.15;2.10;;;17.30;58.20;;;;;;5991225;23;20287;-85
2023/12/08 12:15:20;;;;;;;3.40;1.95;;;17.30;58.00;;;;;;6015578;23;20194;-84
2023/12/08 12:17:47;;;;;;;2.50;1.92;;;17.30;58.20;;;;;;5992676;23;20165;-85
2023/12/08 12:20:13;;;;;;;2.90;2.17;;;17.30;57.80;;;;;;5993215;23;20150;-84
2023/12/08 12:22:39;;;;;;;2.70;1.85;;;17.30;57.60;;;;;;6015454;23;20154;-85
2023/12/08 12:25:08;;;;;;;2.80;2.15;;;17.30;57.90;;;;;;5991887;23;20150;-83
2023/12/08 12:27:41;;;;;;;3.60;2.17;;;17.40;57.90;;;;;;5990088;23;20153;-86
2023/12/08 12:30:09;;;;;;;2.50;1.90;;;17.30;58.10;;;;;;6119462;23;20543;-87
2023/12/08 12:32:36;;;;;;;2.25;1.90;;;17.30;57.60;;;;;;6161777;23;20208;-84
2023/12/08 12:35:02;;;;;;;3.70;1.70;;;17.30;58.60;;;;;;6161084;23;20178;-83
2023/12/08 12:37:28;;;;;;;2.70;2.00;;;17.30;58.30;;;;;;6138004;23;20147;-84
2023/12/08 12:39:53;;;;;;;2.85;1.98;;;17.30;58.10;;;;;;6094537;23;20157;-85
2023/12/08 12:42:19;;;;;;;2.78;1.90;;;17.30;57.80;;;;;;6070917;23;20149;-81
2023/12/08 12:44:46;;;;;;;2.85;2.20;;;17.40;57.80;;;;;;6047121;23;20265;-84
2023/12/08 12:47:21;;;;;;;2.90;1.90;;;17.30;58.00;;;;;;6049144;23;20248;-83
2023/12/08 12:50:07;;;;;;;2.28;1.90;;;17.30;58.20;;;;;;6047648;23;20258;-83
2023/12/08 12:52:47;;;;;;;2.60;2.00;;;17.30;58.20;;;;;;6070819;23;20307;-83
2023/12/08 12:55:22;;;;;;;2.35;1.77;;;17.30;58.10;;;;;;6047228;23;20662;-82
2023/12/08 12:58:15;;;;;;;2.13;1.75;;;17.30;58.20;;;;;;6073765;23;20133;-83
2023/12/08 13:00:42;;;;;;;4.00;2.08;;;17.30;57.90;;;;;;6028776;23;20588;-84
2023/12/08 13:03:09;;;;;;;3.58;1.90;;;17.30;58.50;;;;;;6072069;23;20604;-82
2023/12/08 13:05:54;;;;;;;3.15;1.70;;;17.20;58.50;;;;;;6071584;23;20156;-84
2023/12/08 13:08:24;;;;;;;2.47;2.00;;;17.20;58.30;;;;;;6050142;23;20578;-83
2023/12/08 13:10:53;;;;;;;2.55;1.98;;;17.20;58.60;;;;;;6082199;23;20151;-84
2023/12/08 13:13:20;;;;;;;3.60;2.22;;;17.20;58.30;;;;;;6085694;23;20159;-87
2023/12/08 13:15:48;;;;;;;3.58;1.92;;;17.20;58.50;;;;;;6107062;23;20557;-83
2023/12/08 13:18:16;;;;;;;3.20;2.00;;;17.20;58.50;;;;;;6106925;23;20151;-85
2023/12/08 13:20:43;;;;;;;3.25;2.08;;;17.20;58.00;;;;;;6085115;23;20167;-83
2023/12/08 13:23:09;;;;;;;4.80;2.13;;;17.20;58.20;;;;;;6083520;23;20187;-85
2023/12/08 13:25:35;;;;;;;5.72;2.30;;;17.20;57.70;;;;;;6133364;23;20162;-85
2023/12/08 13:28:02;;;;;;;3.38;2.05;;;17.30;58.20;;;;;;6133424;23;20482;-84
2023/12/08 13:30:28;;;;;;;7.93;2.17;;;17.30;57.60;;;;;;6158626;23;20151;-85
2023/12/08 13:32:54;;;;;;;3.97;2.00;;;17.30;57.80;;;;;;6157636;23;20567;-84